Time;durP1;ratioP1;P1;durP2;ratioP2;P2;SDS_P1;SDS_P2;PMS_P1;PMS_P2;Temp;Humidity;BMP_temperature;BMP_pressure;BME280_temperature;BME280_humidity;BME280_pressure;Samples;Min_cycle;Max_cycle;Signal;HPM_P1;HPM_P2
2020/12/06 00:00:21;;;;;;;13.10;5.40;;;;;;;16.22;66.20;100314.63;4842799;29;20151;-82
2020/12/06 00:02:47;;;;;;;8.38;4.72;;;;;;;16.21;66.05;100316.34;4832126;29;20063;-81
2020/12/06 00:05:12;;;;;;;9.55;4.82;;;;;;;16.21;66.42;100312.91;4825466;29;20400;-81
2020/12/06 00:07:38;;;;;;;10.48;4.97;;;;;;;16.21;65.92;100311.16;4838130;29;20085;-81
2020/12/06 00:10:05;;;;;;;7.35;4.80;;;;;;;16.20;65.71;100296.47;4840445;29;20054;-81
2020/12/06 00:12:36;;;;;;;8.30;4.78;;;;;;;16.20;66.08;100288.69;4830287;29;20053;-81
2020/12/06 00:15:05;;;;;;;11.05;4.57;;;;;;;16.19;66.21;100288.69;4834430;29;20393;-81
2020/12/06 00:17:30;;;;;;;9.32;4.57;;;;;;;16.19;65.75;100281.75;4865682;29;20029;-81
2020/12/06 00:19:55;;;;;;;7.10;4.45;;;;;;;16.18;65.70;100282.66;4818210;29;20041;-81
2020/12/06 00:22:21;;;;;;;8.25;4.38;;;;;;;16.18;65.87;100282.66;4846020;29;20033;-81
2020/12/06 00:24:46;;;;;;;7.68;4.40;;;;;;;16.18;65.66;100287.84;4853168;29;20041;-81
2020/12/06 00:27:11;;;;;;;7.40;4.18;;;;;;;16.18;65.68;100287.00;4847395;29;20469;-81
2020/12/06 00:29:37;;;;;;;8.43;4.10;;;;;;;16.17;65.62;100283.53;4831546;29;20042;-81
2020/12/06 00:32:02;;;;;;;6.53;4.22;;;;;;;16.17;65.49;100286.13;4839198;29;20434;-81
2020/12/06 00:34:28;;;;;;;7.85;4.07;;;;;;;16.16;65.30;100280.97;4842205;29;20057;-81
2020/12/06 00:36:53;;;;;;;6.22;3.85;;;;;;;16.16;65.46;100286.16;4831309;29;20148;-81
2020/12/06 00:39:18;;;;;;;6.57;3.90;;;;;;;16.17;65.60;100290.47;4847176;29;20473;-81
2020/12/06 00:41:44;;;;;;;5.93;4.07;;;;;;;16.17;65.13;100291.31;4831805;29;20045;-81
2020/12/06 00:44:11;;;;;;;6.93;3.70;;;;;;;16.16;65.08;100283.56;4832124;29;20089;-81
2020/12/06 00:46:36;;;;;;;6.38;4.05;;;;;;;16.17;65.40;100285.25;4832638;29;20030;-81
2020/12/06 00:49:02;;;;;;;6.30;4.00;;;;;;;16.15;65.22;100292.22;4836348;29;20045;-81
2020/12/06 00:51:27;;;;;;;6.63;3.80;;;;;;;16.15;65.05;100287.88;4820184;29;20044;-81
2020/12/06 00:53:52;;;;;;;6.45;3.70;;;;;;;16.15;65.12;100287.00;4822977;29;20029;-81
2020/12/06 00:56:21;;;;;;;6.82;3.65;;;;;;;16.15;64.76;100287.88;4815236;29;20439;-82
2020/12/06 00:58:47;;;;;;;5.40;3.78;;;;;;;16.15;65.28;100292.22;4859226;29;20025;-81
2020/12/06 01:01:14;;;;;;;6.13;3.63;;;;;;;16.15;64.71;100284.41;4847600;29;20041;-81
2020/12/06 01:03:40;;;;;;;5.32;3.60;;;;;;;16.15;64.59;100277.50;4847570;29;20041;-81
2020/12/06 01:06:16;;;;;;;5.68;3.20;;;;;;;16.14;64.60;100277.53;4845659;29;20029;-81
2020/12/06 01:08:43;;;;;;;6.40;3.50;;;;;;;16.13;64.77;100279.25;4846967;29;20053;-81
2020/12/06 01:11:13;;;;;;;5.28;3.50;;;;;;;16.13;64.47;100294.81;4847470;29;20037;-81
2020/12/06 01:13:39;;;;;;;7.57;3.42;;;;;;;16.12;64.39;100293.13;4863819;29;20029;-81
2020/12/06 01:16:04;;;;;;;8.32;4.20;;;;;;;16.13;64.67;100273.19;4850107;29;20041;-81
2020/12/06 01:18:29;;;;;;;6.20;3.88;;;;;;;16.14;64.40;100285.31;4853028;29;20025;-81
2020/12/06 01:20:55;;;;;;;7.45;3.70;;;;;;;16.12;64.31;100293.13;4855024;29;20370;-81
2020/12/06 01:23:22;;;;;;;5.38;3.50;;;;;;;16.12;64.26;100290.50;4820524;29;20108;-81
2020/12/06 01:25:47;;;;;;;4.53;3.05;;;;;;;16.13;64.31;100294.81;4832193;29;20045;-81
2020/12/06 01:28:12;;;;;;;5.63;3.35;;;;;;;16.12;63.96;100295.72;4816876;29;20036;-81
2020/12/06 01:30:38;;;;;;;8.07;3.90;;;;;;;16.12;64.06;100300.91;4831858;29;20038;-81
2020/12/06 01:33:03;;;;;;;6.22;3.40;;;;;;;16.12;63.77;100313.88;4846785;29;20056;-81
2020/12/06 01:35:28;;;;;;;7.15;3.22;;;;;;;16.13;63.71;100304.34;4863530;29;20037;-81
2020/12/06 01:37:54;;;;;;;6.07;3.72;;;;;;;16.12;63.70;100308.69;4846828;29;20037;-81
2020/12/06 01:40:19;;;;;;;6.40;3.30;;;;;;;16.13;63.75;100301.75;4831461;29;20101;-81
2020/12/06 01:42:44;;;;;;;5.68;3.35;;;;;;;16.11;63.61;100301.75;4831058;29;20128;-81
2020/12/06 01:45:10;;;;;;;5.10;3.30;;;;;;;16.11;63.29;100299.16;4831091;29;20045;-81
2020/12/06 01:47:35;;;;;;;5.50;3.30;;;;;;;16.11;63.42;100300.91;4813574;29;20487;-81
2020/12/06 01:50:01;;;;;;;5.72;3.28;;;;;;;16.11;63.49;100303.50;4830625;29;20125;-81
2020/12/06 01:52:29;;;;;;;5.60;3.20;;;;;;;16.11;63.29;100295.72;4845908;29;20061;-81
2020/12/06 01:54:55;;;;;;;4.88;3.10;;;;;;;16.10;63.44;100294.88;4830909;29;20037;-81
2020/12/06 01:57:21;;;;;;;5.43;3.30;;;;;;;16.10;63.16;100294.00;4841423;29;20039;-81
2020/12/06 01:59:46;;;;;;;3.83;2.80;;;;;;;16.10;63.18;100297.47;4844864;29;20120;-81
2020/12/06 02:02:13;;;;;;;4.85;3.10;;;;;;;16.09;63.21;100293.16;4830754;29;20040;-81
2020/12/06 02:04:39;;;;;;;4.90;3.22;;;;;;;16.10;62.94;100300.06;4846486;29;20380;-81
2020/12/06 02:07:04;;;;;;;5.38;3.42;;;;;;;16.09;63.05;100298.34;4848955;29;20026;-81
2020/12/06 02:09:31;;;;;;;5.88;2.95;;;;;;;16.10;63.23;100300.06;4825752;29;20057;-81
2020/12/06 02:11:57;;;;;;;4.80;3.10;;;;;;;16.09;63.38;100306.13;4840304;29;20037;-81
2020/12/06 02:14:22;;;;;;;4.53;2.60;;;;;;;16.09;63.04;100305.25;4827000;29;20125;-81
2020/12/06 02:16:52;;;;;;;4.30;2.90;;;;;;;16.08;62.88;100307.00;4827270;29;20073;-81
2020/12/06 02:19:17;;;;;;;4.85;2.53;;;;;;;16.10;62.66;100318.22;4842807;29;20033;-81
2020/12/06 02:21:42;;;;;;;5.13;3.00;;;;;;;16.10;62.76;100315.63;4846922;29;20496;-81
2020/12/06 02:24:09;;;;;;;5.53;3.22;;;;;;;16.10;62.53;100325.16;4842663;29;20041;-81
2020/12/06 02:26:43;;;;;;;4.95;3.00;;;;;;;16.08;62.71;100330.34;4842305;29;20112;-81
2020/12/06 02:29:09;;;;;;;;;;;;;;;16.08;62.52;100335.56;4842409;29;20378;-81
2020/12/06 02:31:35;;;;;;;4.28;2.80;;;;;;;16.09;62.38;100331.22;4844078;29;19924;-81
2020/12/06 02:34:02;;;;;;;4.72;2.78;;;;;;;16.09;62.60;100333.81;4828466;29;20053;-81
2020/12/06 02:36:27;;;;;;;5.28;3.05;;;;;;;16.08;62.53;100332.97;4844903;29;20033;-81
2020/12/06 02:38:53;;;;;;;4.05;2.50;;;;;;;16.07;62.58;100339.03;4843202;29;20030;-81
2020/12/06 02:41:18;;;;;;;3.88;2.72;;;;;;;16.08;62.25;100329.50;4844014;29;20105;-81
2020/12/06 02:43:44;;;;;;;5.03;3.00;;;;;;;16.07;62.30;100326.06;4838385;29;20046;-81
2020/12/06 02:46:09;;;;;;;3.97;2.47;;;;;;;16.07;62.29;100325.19;4842126;29;20030;-81
2020/12/06 02:48:34;;;;;;;4.22;2.70;;;;;;;16.06;61.80;100329.53;4827779;29;20059;-81
2020/12/06 02:51:00;;;;;;;4.82;2.78;;;;;;;16.06;62.16;100328.66;4842559;29;20042;-81
2020/12/06 02:53:25;;;;;;;5.25;2.58;;;;;;;16.05;62.17;100327.81;4810806;29;20042;-81
2020/12/06 02:55:50;;;;;;;4.35;2.75;;;;;;;16.05;62.19;100333.00;4808984;29;20042;-81
2020/12/06 02:58:16;;;;;;;4.40;2.72;;;;;;;16.05;62.28;100330.41;4826277;29;20034;-81
2020/12/06 03:00:41;;;;;;;3.42;2.50;;;;;;;16.04;62.28;100328.66;4841897;29;20113;-82
2020/12/06 03:03:07;;;;;;;4.05;2.55;;;;;;;16.05;62.09;100314.84;4828544;29;20569;-81
2020/12/06 03:05:32;;;;;;;3.67;2.67;;;;;;;16.04;62.11;100316.53;4832739;29;20033;-81
2020/12/06 03:07:58;;;;;;;5.22;3.10;;;;;;;16.04;61.84;100320.88;4845852;29;20030;-80
2020/12/06 03:10:23;;;;;;;4.47;2.95;;;;;;;16.03;62.41;100320.03;4816232;29;20038;-81
2020/12/06 03:12:48;;;;;;;4.63;2.47;;;;;;;16.02;61.85;100317.44;4846752;29;20037;-81
2020/12/06 03:15:13;;;;;;;4.03;2.75;;;;;;;16.02;62.04;100314.84;4847623;29;20040;-81
2020/12/06 03:17:39;;;;;;;3.03;2.30;;;;;;;16.03;62.10;100311.41;4852356;29;20121;-81
2020/12/06 03:20:04;;;;;;;3.78;2.78;;;;;;;16.03;61.60;100308.81;4851504;29;20026;-81
2020/12/06 03:22:32;;;;;;;4.35;2.97;;;;;;;16.03;61.88;100316.59;4833571;29;20106;-81
2020/12/06 03:24:59;;;;;;;4.43;2.42;;;;;;;16.03;61.99;100309.66;4816428;29;20064;-81
2020/12/06 03:27:24;;;;;;;3.72;2.42;;;;;;;16.03;61.84;100316.59;4830888;29;20060;-81
2020/12/06 03:29:50;;;;;;;4.03;2.40;;;;;;;16.02;61.59;100325.22;4827373;29;20038;-81
2020/12/06 03:32:15;;;;;;;3.47;2.40;;;;;;;16.02;61.85;100322.63;4845169;29;20231;-81
2020/12/06 03:34:40;;;;;;;3.63;2.55;;;;;;;16.02;61.59;100318.28;4829446;29;20382;-81
2020/12/06 03:37:06;;;;;;;4.63;2.28;;;;;;;16.02;61.94;100330.44;4814587;29;20033;-81
2020/12/06 03:39:31;;;;;;;3.65;2.50;;;;;;;16.02;61.77;100330.44;4829133;29;20190;-81
2020/12/06 03:41:56;;;;;;;3.55;2.08;;;;;;;16.01;61.57;100328.72;4851187;29;20139;-81
2020/12/06 03:44:22;;;;;;;3.17;2.40;;;;;;;16.00;61.63;100325.28;4814748;29;20036;-81
2020/12/06 03:46:47;;;;;;;3.28;2.20;;;;;;;16.00;61.49;100326.97;4845281;29;20030;-81
2020/12/06 03:49:12;;;;;;;3.97;2.33;;;;;;;16.00;61.55;100321.78;4809501;29;20030;-81
2020/12/06 03:51:38;;;;;;;3.30;2.03;;;;;;;16.00;61.47;100314.00;4801522;29;20079;-81
2020/12/06 03:54:03;;;;;;;2.53;2.00;;;;;;;16.00;61.63;100322.69;4814312;29;20045;-81
2020/12/06 03:56:28;;;;;;;2.53;2.00;;;;;;;16.00;61.54;100308.81;4828761;29;20500;-81
2020/12/06 03:58:54;;;;;;;3.55;2.25;;;;;;;15.99;61.45;100317.50;4813782;29;20079;-81
2020/12/06 04:01:19;;;;;;;4.47;2.85;;;;;;;15.99;61.37;100320.94;4843186;29;20030;-81
2020/12/06 04:03:44;;;;;;;2.97;2.20;;;;;;;15.99;61.22;100315.75;4826472;29;20042;-81
2020/12/06 04:06:10;;;;;;;3.83;2.10;;;;;;;15.99;61.17;100317.50;4844975;29;20481;-81
2020/12/06 04:08:35;;;;;;;4.00;2.45;;;;;;;15.98;61.04;100321.84;4845120;29;20060;-81
2020/12/06 04:11:00;;;;;;;3.28;2.30;;;;;;;15.99;61.28;100323.53;4828173;29;20042;-81
2020/12/06 04:13:26;;;;;;;3.85;2.25;;;;;;;15.97;61.24;100320.09;4830498;29;20123;-81
2020/12/06 04:15:51;;;;;;;3.15;2.00;;;;;;;15.97;61.18;100325.28;4836027;29;20037;-81
2020/12/06 04:18:16;;;;;;;4.05;2.65;;;;;;;15.97;60.92;100325.28;4846925;29;20108;-83
2020/12/06 04:20:42;;;;;;;2.75;2.03;;;;;;;15.97;60.94;100322.69;4827655;29;20483;-83
2020/12/06 04:23:07;;;;;;;3.70;2.22;;;;;;;15.97;61.02;100321.84;4852797;29;20040;-82
2020/12/06 04:25:32;;;;;;;3.40;2.13;;;;;;;15.97;60.67;100308.88;4831774;29;20033;-83
2020/12/06 04:27:58;;;;;;;3.70;2.30;;;;;;;15.96;60.97;100312.31;4832031;29;20044;-83
2020/12/06 04:30:23;;;;;;;2.90;2.20;;;;;;;15.95;60.93;100308.03;4846346;29;20045;-83
2020/12/06 04:32:49;;;;;;;3.65;2.25;;;;;;;15.96;60.64;100320.09;4861840;29;20026;-82
2020/12/06 04:35:15;;;;;;;3.40;2.28;;;;;;;15.97;61.07;100327.88;4827538;29;20030;-83
2020/12/06 04:37:40;;;;;;;2.63;1.90;;;;;;;15.95;60.92;100318.41;4856429;29;20030;-82
2020/12/06 04:40:06;;;;;;;2.78;2.10;;;;;;;15.97;60.87;100327.03;4857221;29;20030;-83
2020/12/06 04:42:32;;;;;;;3.20;2.40;;;;;;;15.96;60.71;100325.28;4858894;29;20062;-83
2020/12/06 04:45:00;;;;;;;3.88;2.50;;;;;;;15.96;60.79;100333.97;4861315;29;20062;-83
2020/12/06 04:47:46;;;;;;;2.65;2.03;;;;;;;15.96;60.74;100336.56;4861314;29;20146;-83
2020/12/06 04:50:22;;;;;;;3.05;1.80;;;;;;;15.95;60.77;100340.00;4857193;29;20026;-83
2020/12/06 04:52:56;;;;;;;2.78;2.30;;;;;;;15.92;60.72;100340.06;4859944;29;20026;-83
2020/12/06 04:55:27;;;;;;;3.03;2.25;;;;;;;15.93;60.74;100335.72;4861473;29;20038;-83
2020/12/06 04:57:57;;;;;;;5.07;2.28;;;;;;;15.91;60.65;100345.25;4858554;29;20037;-82
2020/12/06 05:00:50;;;;;;;3.15;2.22;;;;;;;15.94;60.74;100337.44;4854808;29;20026;-82
2020/12/06 05:03:17;;;;;;;2.80;1.90;;;;;;;15.93;60.51;100339.16;4853642;29;20115;-82
2020/12/06 05:05:43;;;;;;;3.13;2.25;;;;;;;15.93;60.61;100333.13;4851573;29;20039;-82
2020/12/06 05:08:12;;;;;;;3.38;2.03;;;;;;;15.93;60.48;100338.31;4832519;29;20059;-82
2020/12/06 05:10:40;;;;;;;3.00;2.03;;;;;;;15.93;60.58;100333.97;4835048;29;20042;-82
2020/12/06 05:13:07;;;;;;;2.92;2.15;;;;;;;15.94;60.32;100329.63;4840258;29;20033;-82
2020/12/06 05:15:32;;;;;;;4.10;2.35;;;;;;;15.92;60.43;100327.09;4840022;29;20046;-82
2020/12/06 05:17:59;;;;;;;3.10;2.30;;;;;;;15.91;60.55;100325.34;4842340;29;20034;-82
2020/12/06 05:20:25;;;;;;;2.90;2.05;;;;;;;15.93;60.44;100330.53;4851378;29;20090;-82
2020/12/06 05:22:51;;;;;;;2.83;2.00;;;;;;;15.92;60.42;100331.41;4850482;29;20093;-82
2020/12/06 05:25:16;;;;;;;3.38;2.15;;;;;;;15.93;60.44;100325.34;4826548;29;20045;-83
2020/12/06 05:27:42;;;;;;;2.90;2.00;;;;;;;15.91;60.46;100335.72;4840713;29;20034;-82
2020/12/06 05:30:08;;;;;;;3.15;2.17;;;;;;;15.91;60.41;100342.66;4825991;29;20034;-82
2020/12/06 05:32:34;;;;;;;2.83;2.17;;;;;;;15.91;60.28;100345.25;4840188;29;20030;-82
2020/12/06 05:35:00;;;;;;;2.80;2.00;;;;;;;15.89;60.20;100347.84;4841051;29;20053;-82
2020/12/06 05:37:27;;;;;;;3.10;2.38;;;;;;;15.91;60.59;100345.25;4839536;29;20059;-82
2020/12/06 05:40:10;;;;;;;3.03;2.20;;;;;;;15.90;60.34;100339.22;4854832;29;20030;-82
2020/12/06 05:42:37;;;;;;;2.97;2.15;;;;;;;15.90;60.34;100339.22;4860020;29;20056;-82
2020/12/06 05:45:03;;;;;;;2.60;2.00;;;;;;;15.89;60.21;100340.06;4859490;29;20041;-82
2020/12/06 05:47:29;;;;;;;3.00;1.98;;;;;;;15.88;60.49;100343.56;4842441;29;20034;-82
2020/12/06 05:49:56;;;;;;;3.22;2.40;;;;;;;15.90;60.33;100340.97;4838805;29;20163;-82
2020/12/06 05:52:21;;;;;;;2.80;1.95;;;;;;;15.91;60.24;100347.84;4852627;29;20037;-83
2020/12/06 05:54:48;;;;;;;2.33;1.80;;;;;;;15.88;59.97;100343.56;4842141;29;20034;-82
2020/12/06 05:57:14;;;;;;;2.28;2.00;;;;;;;15.90;60.14;100347.00;4843009;29;20034;-82
2020/12/06 05:59:40;;;;;;;2.35;1.85;;;;;;;15.88;60.01;100350.50;4859649;29;20053;-83
2020/12/06 06:02:07;;;;;;;3.03;2.08;;;;;;;15.89;60.10;100349.59;4858897;29;20030;-82
2020/12/06 06:04:37;;;;;;;2.20;2.00;;;;;;;15.89;60.03;100349.59;4849233;29;20037;-83
2020/12/06 06:07:04;;;;;;;3.30;2.17;;;;;;;15.88;60.02;100338.38;4860054;29;20037;-82
2020/12/06 06:09:41;;;;;;;2.72;1.98;;;;;;;15.89;60.21;100337.47;4858428;29;20049;-82
2020/12/06 06:12:30;;;;;;;3.03;2.10;;;;;;;15.88;60.02;100340.13;4859809;29;20119;-82
2020/12/06 06:14:58;;;;;;;2.70;1.80;;;;;;;15.89;60.00;100334.03;4858247;29;20469;-83
2020/12/06 06:17:24;;;;;;;2.50;1.92;;;;;;;15.89;59.73;100341.81;4846878;29;20021;-82
2020/12/06 06:19:51;;;;;;;3.28;2.30;;;;;;;15.88;59.90;100347.91;4858854;29;20022;-82
2020/12/06 06:22:20;;;;;;;2.72;2.15;;;;;;;15.87;59.86;100343.56;4845589;29;20030;-83
2020/12/06 06:24:47;;;;;;;2.53;1.92;;;;;;;15.87;59.96;100351.34;4860935;29;20038;-83
2020/12/06 06:27:13;;;;;;;2.63;1.95;;;;;;;15.87;59.89;100341.81;4845369;29;20030;-82
2020/12/06 06:29:40;;;;;;;2.80;2.00;;;;;;;15.87;59.59;100330.59;4858727;29;20135;-82
2020/12/06 06:32:06;;;;;;;3.00;2.05;;;;;;;15.87;59.64;100335.78;4857602;29;20131;-82
2020/12/06 06:34:32;;;;;;;2.38;1.80;;;;;;;15.87;60.08;100340.97;4828335;29;20063;-82
2020/12/06 06:36:57;;;;;;;2.42;1.85;;;;;;;15.88;59.77;100343.56;4858936;29;20026;-83
2020/12/06 06:39:24;;;;;;;3.00;2.03;;;;;;;15.87;59.68;100328.00;4852334;29;20054;-82
2020/12/06 06:42:01;;;;;;;2.75;1.90;;;;;;;15.86;59.57;100340.13;4858252;29;20045;-82
2020/12/06 06:44:28;;;;;;;2.25;1.90;;;;;;;15.87;59.62;100338.38;4856958;29;20037;-82
2020/12/06 06:47:02;;;;;;;2.10;1.77;;;;;;;15.86;59.66;100341.84;4841634;29;20045;-82
2020/12/06 06:49:27;;;;;;;3.72;2.08;;;;;;;15.86;59.45;100347.91;4846992;29;20026;-82
2020/12/06 06:51:53;;;;;;;2.70;2.08;;;;;;;15.86;59.50;100347.06;4862227;29;20065;-82
2020/12/06 06:54:30;;;;;;;3.22;2.00;;;;;;;15.86;59.64;100340.13;4864791;29;20066;-83
2020/12/06 07:04:53;;;;;;;5.20;1.90;;;;;;;15.85;59.85;100343.56;5097542;23;20057;-80
2020/12/06 07:07:38;;;;;;;6.55;2.42;;;;;;;15.88;60.02;100343.56;4871824;29;20049;-82
2020/12/06 07:10:24;;;;;;;4.90;2.80;;;;;;;15.89;60.10;100342.66;4872852;29;20036;-82
2020/12/06 07:12:54;;;;;;;6.93;3.40;;;;;;;16.02;60.09;100341.66;4847701;29;20502;-81
2020/12/06 07:15:25;;;;;;;10.85;3.35;;;;;;;16.12;59.94;100339.84;4872323;29;20494;-81
2020/12/06 07:17:52;;;;;;;9.27;3.40;;;;;;;16.17;59.52;100340.63;4843114;29;20078;-82
2020/12/06 07:20:19;;;;;;;9.90;3.35;;;;;;;16.20;59.62;100331.94;4855553;29;20065;-82
2020/12/06 07:22:46;;;;;;;8.52;3.63;;;;;;;16.20;59.53;100338.03;4834788;29;20034;-79
2020/12/06 07:25:12;;;;;;;9.93;3.08;;;;;;;16.22;59.29;100333.66;4861543;29;20036;-79
2020/12/06 07:27:38;;;;;;;13.68;3.20;;;;;;;16.22;59.25;100336.25;4834447;29;20037;-81
2020/12/06 07:30:06;;;;;;;6.75;3.10;;;;;;;16.25;59.09;100351.78;4828078;29;20030;-81
2020/12/06 07:32:32;;;;;;;13.07;3.65;;;;;;;16.27;59.00;100350.94;4838706;29;20026;-81
2020/12/06 07:34:57;;;;;;;5.75;2.90;;;;;;;16.27;59.34;100362.16;4827384;29;20117;-81
2020/12/06 07:37:22;;;;;;;7.40;2.92;;;;;;;16.29;58.78;100356.94;4826291;29;20045;-81
2020/12/06 07:39:49;;;;;;;12.32;3.22;;;;;;;16.30;58.90;100351.72;4801023;29;20524;-81
2020/12/06 07:42:26;;;;;;;6.85;3.15;;;;;;;16.32;58.82;100351.72;4841287;29;20030;-81
2020/12/06 07:44:54;;;;;;;8.57;3.20;;;;;;;16.32;58.75;100359.50;4830431;29;20030;-81
2020/12/06 07:47:20;;;;;;;7.13;3.20;;;;;;;16.33;58.57;100367.28;4833786;29;20590;-82
2020/12/06 07:49:48;;;;;;;4.57;2.95;;;;;;;16.34;58.58;100362.97;4815587;29;20053;-82
2020/12/06 07:52:25;;;;;;;8.55;2.95;;;;;;;16.34;58.77;100355.16;4852044;29;20053;-82
2020/12/06 07:54:54;;;;;;;5.55;2.50;;;;;;;16.36;58.50;100356.00;4855863;29;20034;-82
2020/12/06 07:57:35;;;;;;;9.68;3.00;;;;;;;16.37;58.51;100352.53;4835147;29;20045;-82
2020/12/06 08:00:01;;;;;;;5.28;2.75;;;;;;;16.37;58.48;100355.97;4819252;29;20133;-81
2020/12/06 08:02:32;;;;;;;4.78;2.88;;;;;;;16.38;58.42;100351.66;4844620;29;20027;-82
2020/12/06 08:04:59;;;;;;;6.60;2.70;;;;;;;16.39;58.33;100345.56;4841411;29;20059;-81
2020/12/06 08:07:46;;;;;;;5.85;3.05;;;;;;;16.40;58.17;100349.91;4834379;29;20030;-81
2020/12/06 08:10:17;;;;;;;5.57;3.10;;;;;;;16.41;58.14;100356.81;4825899;29;20133;-81
2020/12/06 08:12:46;;;;;;;5.10;2.72;;;;;;;16.41;58.08;100367.19;4841217;29;20042;-81
2020/12/06 08:15:12;;;;;;;5.95;2.67;;;;;;;16.42;58.02;100363.72;4830476;29;20158;-81
2020/12/06 08:17:42;;;;;;;5.70;2.90;;;;;;;16.42;57.97;100361.13;4830352;29;20159;-82
2020/12/06 08:20:12;;;;;;;6.53;2.67;;;;;;;16.44;57.81;100355.03;4842628;29;20038;-81
2020/12/06 08:23:04;;;;;;;6.32;2.88;;;;;;;16.45;57.91;100346.34;4828497;29;20362;-81
2020/12/06 08:25:31;;;;;;;6.78;2.60;;;;;;;16.47;57.91;100341.16;4841052;29;20042;-79
2020/12/06 08:27:58;;;;;;;6.40;2.92;;;;;;;16.47;58.02;100335.09;4852368;29;20041;-81
2020/12/06 08:30:27;;;;;;;4.43;2.55;;;;;;;16.47;57.60;100330.75;4831451;29;20026;-81
2020/12/06 08:33:04;;;;;;;8.27;2.53;;;;;;;16.49;57.69;100322.97;4826009;29;20033;-82
2020/12/06 08:35:40;;;;;;;5.55;2.70;;;;;;;16.49;57.85;100329.00;4832982;29;20041;-82
2020/12/06 08:38:29;;;;;;;6.05;2.50;;;;;;;16.50;57.80;100337.66;4843928;29;20098;-81
2020/12/06 08:41:07;;;;;;;7.15;2.90;;;;;;;16.52;57.82;100344.53;4842208;29;20128;-82
2020/12/06 08:43:47;;;;;;;5.05;2.50;;;;;;;16.53;57.67;100346.28;4844003;29;20030;-81
2020/12/06 08:46:15;;;;;;;4.22;2.38;;;;;;;16.53;57.75;100343.66;4830441;29;20058;-81
2020/12/06 08:48:42;;;;;;;4.57;2.53;;;;;;;16.55;57.57;100349.72;4846325;29;20033;-81
2020/12/06 08:51:26;;;;;;;7.80;2.65;;;;;;;16.54;57.61;100347.97;4810866;29;20291;-81
2020/12/06 08:53:51;;;;;;;4.28;2.72;;;;;;;16.56;57.95;100351.41;4836399;29;20030;-81
2020/12/06 08:56:27;;;;;;;5.45;2.53;;;;;;;16.58;57.82;100354.84;4814949;29;20101;-81
2020/12/06 08:58:53;;;;;;;4.63;2.83;;;;;;;16.59;57.44;100351.38;4835806;29;20041;-81
2020/12/06 09:01:18;;;;;;;5.15;2.28;;;;;;;16.58;57.45;100349.66;4847298;29;20026;-81
2020/12/06 09:03:44;;;;;;;6.38;2.33;;;;;;;16.62;57.06;100351.34;4834859;29;20042;-83
2020/12/06 09:06:18;;;;;;;4.18;2.40;;;;;;;16.65;56.72;100356.47;4830892;29;20071;-83
2020/12/06 09:08:50;;;;;;;3.92;2.22;;;;;;;16.71;56.68;100352.94;4825769;29;20052;-83
2020/12/06 09:14:48;;;;;;;5.50;2.55;;;;;;;16.73;56.96;100355.53;4756443;29;20084;-83
2020/12/06 09:18:09;;;;;;;3.58;2.10;;;;;;;16.74;57.18;100360.69;4748443;30;20083;-83
2020/12/06 09:24:16;;;;;;;5.22;2.28;;;;;;;16.76;57.35;100337.28;4765391;30;20047;-83
2020/12/06 09:27:00;;;;;;;3.80;2.13;;;;;;;16.76;57.31;100332.94;4766433;30;20500;-83
2020/12/06 09:34:05;;;;;;;3.47;2.03;;;;;;;16.79;57.61;100343.31;4740857;30;20068;-83
2020/12/06 09:50:42;;;;;;;3.38;1.70;;;;;;;16.83;58.02;100341.53;4755457;30;20063;-83
2020/12/06 09:54:15;;;;;;;2.60;2.00;;;;;;;16.82;58.03;100334.66;4761987;30;20036;-82
2020/12/06 09:57:40;;;;;;;3.72;2.13;;;;;;;16.83;58.45;100336.34;4743740;30;20052;-82
2020/12/06 10:03:21;;;;;;;2.42;1.90;;;;;;;16.85;58.52;100324.19;5155209;23;20056;-82
2020/12/06 10:05:51;;;;;;;2.58;1.70;;;;;;;16.85;58.24;100319.88;4884619;29;20113;-79
2020/12/06 10:25:06;;;;;;;3.00;2.08;;;;;;;16.94;58.54;100326.69;4885897;29;20085;-79
2020/12/06 10:27:32;;;;;;;2.20;1.70;;;;;;;16.95;58.64;100306.75;4872274;29;20033;-79
2020/12/06 10:29:57;;;;;;;2.90;2.03;;;;;;;16.93;58.50;100293.75;4872692;29;20476;-79
2020/12/06 10:32:23;;;;;;;2.92;2.10;;;;;;;16.97;58.64;100289.38;4860165;29;20029;-79
2020/12/06 10:34:48;;;;;;;2.67;2.00;;;;;;;16.96;58.85;100277.25;4885794;29;20469;-79
2020/12/06 10:37:14;;;;;;;2.30;1.70;;;;;;;16.99;58.79;100275.47;4876918;29;20037;-80
2020/12/06 10:39:39;;;;;;;2.95;1.85;;;;;;;16.99;58.70;100265.06;4855565;29;20037;-79
2020/12/06 10:42:04;;;;;;;1.90;1.60;;;;;;;16.99;58.81;100252.09;4888525;29;20032;-79
2020/12/06 10:44:30;;;;;;;2.05;1.65;;;;;;;16.97;58.53;100251.25;4864610;29;20471;-79
2020/12/06 10:46:55;;;;;;;2.80;1.90;;;;;;;16.99;58.78;100257.28;4864828;29;20443;-79
2020/12/06 10:49:21;;;;;;;3.05;1.80;;;;;;;16.99;58.79;100256.44;4861941;29;20131;-79
2020/12/06 10:51:47;;;;;;;2.25;1.80;;;;;;;17.00;58.68;100258.13;4858530;29;20041;-79
2020/12/06 10:54:14;;;;;;;2.53;1.90;;;;;;;17.00;58.80;100258.97;4866072;29;20109;-79
2020/12/06 10:56:40;;;;;;;2.13;1.55;;;;;;;17.00;58.72;100269.38;4880287;29;20040;-80
2020/12/06 10:59:06;;;;;;;2.72;1.90;;;;;;;17.00;58.54;100271.97;4859194;29;20036;-80
2020/12/06 11:01:46;;;;;;;2.63;1.80;;;;;;;17.00;58.85;100271.97;4856198;29;20029;-82
2020/12/06 11:08:29;;;;;;;3.33;1.80;;;;;;;17.02;58.51;100278.00;4888979;29;20074;-83
2020/12/06 11:11:32;;;;;;;1.80;1.40;;;;;;;17.01;58.73;100271.13;4906934;29;20048;-83
2020/12/06 11:22:30;;;;;;;2.63;1.60;;;;;;;17.01;58.46;100265.91;4876229;24;20068;-82
2020/12/06 11:24:55;;;;;;;2.25;1.80;;;;;;;17.03;58.87;100271.09;4868642;29;20034;-81
2020/12/06 11:27:21;;;;;;;2.25;1.60;;;;;;;17.03;58.50;100268.50;4834221;29;20022;-82
2020/12/06 11:29:47;;;;;;;4.40;1.70;;;;;;;17.05;58.72;100277.97;4839825;29;20098;-82
2020/12/06 11:32:13;;;;;;;1.90;1.70;;;;;;;17.04;58.61;100268.44;4834672;29;20018;-82
2020/12/06 11:34:39;;;;;;;2.10;1.52;;;;;;;17.08;58.69;100274.47;4832727;29;20104;-82
2020/12/06 11:37:05;;;;;;;2.13;1.50;;;;;;;17.08;58.66;100274.47;4846962;29;20049;-82
2020/12/06 11:39:30;;;;;;;1.95;1.50;;;;;;;17.08;58.70;100276.22;4839442;29;20046;-82
2020/12/06 11:42:35;;;;;;;2.22;1.65;;;;;;;17.09;58.83;100296.13;4831497;29;20037;-80
2020/12/06 11:45:01;;;;;;;2.38;1.75;;;;;;;17.05;58.58;100301.38;5546940;24;20595;-80
2020/12/06 11:47:26;;;;;;;1.95;1.52;;;;;;;17.09;58.58;100303.91;4930160;24;20058;-80
2020/12/06 11:53:06;;;;;;;2.97;1.83;;;;;;;17.11;58.78;100315.16;4791651;29;20113;-80
2020/12/06 11:55:51;;;;;;;2.88;1.90;;;;;;;17.12;58.77;100317.75;4794713;29;20055;-80
2020/12/06 11:58:19;;;;;;;9.20;7.43;;;;;;;17.12;58.72;100311.69;4791828;30;20043;-81
2020/12/06 12:01:30;;;;;;;17.05;14.63;;;;;;;17.13;58.91;100316.84;4780083;30;20044;-81
2020/12/06 12:07:53;;;;;;;17.42;14.95;;;;;;;17.14;59.02;100320.31;4757477;30;20059;-82
2020/12/06 12:10:25;;;;;;;17.33;14.20;;;;;;;17.12;58.94;100315.13;4758256;30;20172;-83
2020/12/06 12:19:41;;;;;;;16.65;12.57;;;;;;;17.12;58.98;100328.13;4755935;30;20144;-81
2020/12/06 12:22:13;;;;;;;14.93;11.70;;;;;;;17.12;58.99;100335.94;4738568;30;20076;-81
2020/12/06 12:24:43;;;;;;;14.77;12.10;;;;;;;17.12;59.24;100332.47;4753580;30;20040;-82
2020/12/06 12:27:16;;;;;;;15.65;12.48;;;;;;;17.12;59.07;100332.47;4744658;30;20032;-81
2020/12/06 12:29:43;;;;;;;13.07;11.67;;;;;;;17.13;58.90;100326.38;4746363;30;20128;-81
2020/12/06 12:35:51;;;;;;;12.38;10.30;;;;;;;17.13;59.01;100301.25;4756224;30;20035;-82
2020/12/06 12:49:19;;;;;;;12.80;9.77;;;;;;;17.17;58.77;100289.06;4819006;29;20089;-82
2020/12/06 12:56:04;;;;;;;9.80;8.20;;;;;;;17.19;58.63;100276.91;4762891;30;20059;-83
2020/12/06 12:58:54;;;;;;;12.23;8.90;;;;;;;17.20;58.42;100276.00;4756049;30;20119;-82
2020/12/06 13:01:20;;;;;;;;;;;;;;;17.21;58.59;100275.13;4798432;29;20035;-80
2020/12/06 13:03:49;;;;;;;11.00;8.38;;;;;;;17.23;58.48;100276.81;4799582;29;20268;-78
2020/12/06 13:06:19;;;;;;;10.57;7.80;;;;;;;17.25;58.50;100276.78;4799646;29;20395;-78
2020/12/06 13:08:45;;;;;;;13.40;8.25;;;;;;;17.27;58.32;100283.69;4785545;29;20528;-80
2020/12/06 13:11:10;;;;;;;10.55;8.32;;;;;;;17.27;58.60;100280.22;4790585;29;20122;-80